Time;durP1;ratioP1;P1;durP2;ratioP2;P2;SDS_P1;SDS_P2;PMS_P1;PMS_P2;Temp;Humidity;BMP_temperature;BMP_pressure;BME280_temperature;BME280_humidity;BME280_pressure;Samples;Min_cycle;Max_cycle;Signal;HPM_P1;HPM_P2
2021/07/27 00:01:13;;;;;;;11.55;8.00;;;691.30;1689.60;;;;;;5095788;28;20043;-69
2021/07/27 00:03:40;;;;;;;15.00;8.60;;;691.30;1715.20;;;;;;5096105;28;20020;-69
2021/07/27 00:06:08;;;;;;;15.75;7.82;;;691.30;1715.20;;;;;;5095894;28;20102;-69
2021/07/27 00:08:37;;;;;;;9.20;8.18;;;691.30;1715.20;;;;;;5095992;28;20028;-69
2021/07/27 00:11:05;;;;;;;12.95;7.75;;;691.20;1689.60;;;;;;5095212;28;20034;-70
2021/07/27 00:13:31;;;;;;;13.13;8.07;;;691.20;1689.60;;;;;;5095705;28;20028;-69
2021/07/27 00:15:57;;;;;;;14.73;9.20;;;691.20;1715.20;;;;;;5095748;28;20028;-69
2021/07/27 00:18:22;;;;;;;18.70;8.27;;;691.20;1715.20;;;;;;5095028;28;20362;-70
2021/07/27 00:20:48;;;;;;;12.02;8.82;;;666.50;1715.20;;;;;;5095478;28;20027;-69
2021/07/27 00:23:14;;;;;;;16.23;8.38;;;666.50;1715.20;;;;;;5093977;28;20055;-70
2021/07/27 00:25:41;;;;;;;13.25;7.63;;;666.40;1715.20;;;;;;5095497;28;20078;-69
2021/07/27 00:28:07;;;;;;;13.85;8.27;;;666.40;1715.20;;;;;;5095367;28;20452;-69
2021/07/27 00:30:32;;;;;;;13.32;8.90;;;666.40;1715.20;;;;;;5095716;28;20098;-69
2021/07/27 00:32:58;;;;;;;12.93;8.20;;;666.40;1740.80;;;;;;5095186;28;20024;-69
2021/07/27 00:35:25;;;;;;;15.05;8.40;;;666.40;1740.80;;;;;;5095503;28;20431;-69
2021/07/27 00:38:10;;;;;;;15.77;8.43;;;666.40;1766.40;;;;;;5094976;28;20103;-69
2021/07/27 00:40:36;;;;;;;;;;;666.40;1766.40;;;;;;5095630;28;20024;-70
2021/07/27 00:43:07;;;;;;;13.13;8.45;;;666.40;1766.40;;;;;;5095051;28;20423;-69
2021/07/27 00:45:33;;;;;;;13.10;8.18;;;666.20;1766.40;;;;;;5095006;28;20039;-69
2021/07/27 00:47:58;;;;;;;13.85;8.25;;;666.20;1766.40;;;;;;5095118;28;20016;-69
2021/07/27 00:50:25;;;;;;;10.75;8.52;;;666.20;1766.40;;;;;;5094873;28;20059;-70
2021/07/27 00:52:50;;;;;;;17.35;9.00;;;666.30;1766.40;;;;;;5094397;28;20457;-70
2021/07/27 00:55:17;;;;;;;9.68;8.00;;;666.30;1766.40;;;;;;5095147;28;20081;-70
2021/07/27 00:57:44;;;;;;;15.30;8.80;;;666.30;1766.40;;;;;;5095013;28;20024;-69
2021/07/27 01:00:11;;;;;;;17.80;8.73;;;666.30;1766.40;;;;;;5094881;28;20389;-70
2021/07/27 01:02:37;;;;;;;12.07;8.23;;;666.30;1766.40;;;;;;5094458;28;20073;-69
2021/07/27 01:05:03;;;;;;;12.95;8.80;;;666.30;1766.40;;;;;;5094772;28;20032;-69
2021/07/27 01:07:29;;;;;;;9.95;8.25;;;666.40;1766.40;;;;;;5095300;28;20442;-69
2021/07/27 01:09:54;;;;;;;16.95;9.60;;;666.40;1766.40;;;;;;5094745;28;20028;-69
2021/07/27 01:12:20;;;;;;;14.20;8.68;;;666.30;1766.40;;;;;;5094674;28;20046;-70
2021/07/27 01:14:46;;;;;;;13.93;9.60;;;666.30;1740.80;;;;;;5094662;28;20109;-70
2021/07/27 01:17:12;;;;;;;11.48;8.60;;;666.30;1766.40;;;;;;5094598;28;20032;-69
2021/07/27 01:44:03;;;;;;;17.02;9.60;;;666.10;1766.40;;;;;;5093833;28;20527;-69
2021/07/27 01:46:34;;;;;;;16.20;9.77;;;666.00;1792.00;;;;;;5093925;28;20066;-69
2021/07/27 01:49:00;;;;;;;12.68;9.38;;;666.00;1792.00;;;;;;5093981;28;20358;-69
2021/07/27 01:51:26;;;;;;;14.25;9.73;;;666.00;1792.00;;;;;;5094166;28;20039;-68
2021/07/27 01:53:55;;;;;;;11.70;9.50;;;666.00;1792.00;;;;;;5093995;28;20024;-68
2021/07/27 01:56:23;;;;;;;15.52;9.77;;;666.00;1792.00;;;;;;5093866;28;20028;-69
2021/07/27 01:58:50;;;;;;;17.40;10.10;;;665.90;1817.60;;;;;;5094050;28;20373;-70
2021/07/27 02:01:16;;;;;;;14.05;9.85;;;665.90;1817.60;;;;;;5093967;28;20035;-69
2021/07/27 02:03:42;;;;;;;15.45;10.32;;;665.90;1817.60;;;;;;5093808;28;20058;-70
2021/07/27 02:06:08;;;;;;;15.45;10.65;;;665.90;1817.60;;;;;;5094338;28;20450;-68
2021/07/27 02:08:34;;;;;;;15.93;9.95;;;665.90;1817.60;;;;;;5093951;28;20028;-69
2021/07/27 02:11:04;;;;;;;14.43;10.10;;;665.90;1817.60;;;;;;5093991;28;20343;-69
2021/07/27 02:13:34;;;;;;;14.15;10.57;;;665.90;1817.60;;;;;;5093651;28;20531;-70
2021/07/27 02:16:01;;;;;;;15.80;10.65;;;665.90;1817.60;;;;;;5093675;28;20027;-71
2021/07/27 02:18:27;;;;;;;15.13;10.50;;;665.90;1817.60;;;;;;5092210;28;20473;-71
2021/07/27 02:20:53;;;;;;;14.30;9.85;;;665.80;1843.20;;;;;;5093693;28;20031;-70
2021/07/27 02:23:19;;;;;;;18.05;10.32;;;665.80;1843.20;;;;;;5093753;28;20462;-69
2021/07/27 02:25:45;;;;;;;14.35;10.52;;;665.80;1843.20;;;;;;5093713;28;20043;-70
2021/07/27 02:28:15;;;;;;;13.98;10.80;;;665.80;1843.20;;;;;;5093801;28;20103;-69
2021/07/27 02:30:47;;;;;;;16.00;10.60;;;665.80;1843.20;;;;;;5093589;28;20492;-69
2021/07/27 02:33:12;;;;;;;15.07;10.70;;;665.80;1843.20;;;;;;5095193;28;20462;-65
2021/07/27 02:35:41;;;;;;;14.85;11.13;;;665.80;1843.20;;;;;;5097779;28;20067;-68
2021/07/27 02:38:08;;;;;;;13.30;9.77;;;665.80;1843.20;;;;;;5097663;28;20027;-65
2021/07/27 02:40:35;;;;;;;16.85;11.30;;;665.80;1843.20;;;;;;5097727;28;20369;-66
2021/07/27 02:43:02;;;;;;;20.52;10.45;;;665.80;1843.20;;;;;;5097275;28;20546;-66
2021/07/27 02:45:28;;;;;;;17.60;9.77;;;665.80;1843.20;;;;;;5097492;28;20040;-67
2021/07/27 02:47:54;;;;;;;15.73;9.95;;;665.80;1843.20;;;;;;5097469;28;20097;-66
2021/07/27 02:50:20;;;;;;;12.68;10.52;;;665.80;1843.20;;;;;;5097335;28;20521;-65
2021/07/27 02:52:46;;;;;;;17.58;10.75;;;665.80;1843.20;;;;;;5097186;28;20096;-65
2021/07/27 02:55:13;;;;;;;14.30;10.27;;;665.70;1868.80;;;;;;5097564;28;20518;-64
2021/07/27 02:57:39;;;;;;;16.88;10.65;;;665.80;1868.80;;;;;;5097551;28;20043;-65
2021/07/27 03:00:06;;;;;;;16.77;11.18;;;665.70;1868.80;;;;;;5097217;28;20051;-64
2021/07/27 03:02:38;;;;;;;15.63;11.38;;;665.70;1868.80;;;;;;5096969;28;20362;-65
2021/07/27 03:05:05;;;;;;;12.77;10.57;;;665.70;1843.20;;;;;;5097173;28;20072;-66
2021/07/27 03:07:37;;;;;;;12.45;10.35;;;665.70;1868.80;;;;;;5096994;28;20020;-64
2021/07/27 03:10:19;;;;;;;21.88;11.38;;;665.70;1868.80;;;;;;5096970;28;20028;-64
2021/07/27 03:12:49;;;;;;;16.38;10.40;;;665.70;1843.20;;;;;;5096755;28;20024;-64
2021/07/27 03:15:23;;;;;;;22.35;11.75;;;665.70;1868.80;;;;;;5096752;28;20392;-65
2021/07/27 03:17:57;;;;;;;14.65;10.27;;;665.70;1868.80;;;;;;5096745;28;20369;-65
2021/07/27 03:20:23;;;;;;;21.35;11.55;;;665.70;1868.80;;;;;;5096775;28;20030;-64
2021/07/27 03:22:53;;;;;;;17.40;11.23;;;665.70;1843.20;;;;;;5096928;28;20428;-65
2021/07/27 03:25:19;;;;;;;14.23;11.07;;;665.70;1868.80;;;;;;5096790;28;20040;-65
2021/07/27 03:27:46;;;;;;;14.57;10.93;;;665.70;1868.80;;;;;;5095566;28;20377;-65
2021/07/27 03:30:14;;;;;;;17.08;11.32;;;665.70;1868.80;;;;;;5096644;28;20028;-66
2021/07/27 03:32:40;;;;;;;21.23;10.98;;;665.60;1868.80;;;;;;5096524;28;20031;-66
2021/07/27 03:35:06;;;;;;;19.70;12.10;;;665.60;1868.80;;;;;;5096581;28;20473;-64
2021/07/27 03:37:33;;;;;;;14.98;11.75;;;665.60;1868.80;;;;;;5095785;28;20492;-64
2021/07/27 03:39:59;;;;;;;17.58;11.02;;;665.60;1868.80;;;;;;5096236;28;20031;-65
2021/07/27 03:42:25;;;;;;;16.45;11.57;;;665.60;1868.80;;;;;;5095798;28;20497;-67
2021/07/27 03:44:57;;;;;;;16.70;12.05;;;640.80;1843.20;;;;;;5095406;28;20028;-65
2021/07/27 03:47:23;;;;;;;22.73;12.90;;;640.80;1868.80;;;;;;5096170;28;20016;-65
2021/07/27 03:49:48;;;;;;;21.50;12.15;;;640.80;1868.80;;;;;;5096141;28;20108;-64
2021/07/27 03:52:14;;;;;;;20.67;11.77;;;640.90;1868.80;;;;;;5096103;28;20020;-68
2021/07/27 03:54:40;;;;;;;24.80;12.73;;;665.60;1894.40;;;;;;5096302;28;20028;-65
2021/07/27 03:57:06;;;;;;;16.48;11.60;;;665.60;1894.40;;;;;;5095817;28;20373;-67
2021/07/27 03:59:32;;;;;;;20.95;11.98;;;665.60;1894.40;;;;;;5096210;28;20940;-65
2021/07/27 04:01:58;;;;;;;14.90;11.38;;;665.60;1894.40;;;;;;5096113;28;20095;-65
2021/07/27 04:04:25;;;;;;;17.52;11.90;;;665.60;1894.40;;;;;;5096078;28;20036;-66
2021/07/27 04:06:51;;;;;;;16.73;12.20;;;665.60;1894.40;;;;;;5096068;28;20031;-66
2021/07/27 04:09:17;;;;;;;19.52;12.50;;;665.60;1894.40;;;;;;5095871;28;20465;-68
2021/07/27 04:11:43;;;;;;;17.08;12.73;;;665.60;1894.40;;;;;;5094561;28;20081;-66
2021/07/27 04:14:11;;;;;;;24.45;12.38;;;665.60;1894.40;;;;;;5095836;28;20099;-66
2021/07/27 04:16:37;;;;;;;16.98;11.45;;;665.60;1894.40;;;;;;5095581;28;20523;-66
2021/07/27 04:19:03;;;;;;;19.92;12.23;;;665.60;1894.40;;;;;;5095724;28;20024;-68
2021/07/27 04:21:29;;;;;;;18.92;11.82;;;665.60;1894.40;;;;;;5095420;28;20491;-66
2021/07/27 04:23:58;;;;;;;20.95;12.18;;;665.60;1894.40;;;;;;5095654;28;20021;-66
2021/07/27 04:26:24;;;;;;;18.95;12.80;;;665.60;1894.40;;;;;;5095585;28;20481;-66
2021/07/27 04:28:50;;;;;;;17.73;12.23;;;665.60;1894.40;;;;;;5095660;28;20099;-65
2021/07/27 04:31:16;;;;;;;17.35;12.55;;;665.70;1920.00;;;;;;5095397;28;20051;-68
2021/07/27 04:33:42;;;;;;;18.10;12.50;;;665.70;1894.40;;;;;;5095405;28;20075;-66
2021/07/27 04:36:11;;;;;;;20.30;12.73;;;665.70;1920.00;;;;;;5095491;28;20020;-66
2021/07/27 04:38:38;;;;;;;17.65;12.38;;;665.70;1920.00;;;;;;5095405;28;20024;-66
2021/07/27 04:41:08;;;;;;;20.70;13.25;;;665.70;1920.00;;;;;;5095660;28;20441;-65
2021/07/27 04:43:35;;;;;;;25.73;13.55;;;665.70;1920.00;;;;;;5094881;28;20078;-69
2021/07/27 04:46:05;;;;;;;21.08;13.15;;;665.70;1920.00;;;;;;5094903;28;20119;-67
2021/07/27 04:48:31;;;;;;;22.65;13.52;;;665.80;1894.40;;;;;;5095208;28;20485;-68
2021/07/27 04:50:57;;;;;;;27.15;13.70;;;666.00;1894.40;;;;;;5095272;28;20024;-69
2021/07/27 04:53:23;;;;;;;33.53;14.48;;;666.00;1894.40;;;;;;5095392;28;20565;-67
2021/07/27 04:55:53;;;;;;;25.63;12.60;;;666.10;1894.40;;;;;;5094542;28;20020;-64
2021/07/27 04:58:19;;;;;;;19.20;12.40;;;666.10;1894.40;;;;;;5094860;28;20020;-66
2021/07/27 05:00:45;;;;;;;20.88;13.15;;;666.20;1894.40;;;;;;5095082;28;20081;-69
2021/07/27 05:03:10;;;;;;;24.55;13.55;;;666.30;1868.80;;;;;;5094973;28;20020;-66
2021/07/27 05:05:36;;;;;;;26.95;13.93;;;666.30;1868.80;;;;;;5094703;28;20032;-73
2021/07/27 05:08:03;;;;;;;23.05;15.25;;;666.40;1843.20;;;;;;5094858;28;20027;-72
2021/07/27 05:10:29;;;;;;;31.00;14.27;;;666.50;1817.60;;;;;;5094785;28;20107;-67
2021/07/27 05:12:55;;;;;;;28.23;15.32;;;691.20;1792.00;;;;;;5094800;28;20024;-65
2021/07/27 05:15:21;;;;;;;25.35;15.23;;;691.30;1792.00;;;;;;5094400;28;20119;-79
2021/07/27 05:17:52;;;;;;;27.42;16.42;;;691.30;1792.00;;;;;;5094523;28;20095;-75
2021/07/27 05:20:18;;;;;;;37.65;16.92;;;691.40;1766.40;;;;;;5094465;28;20024;-66
2021/07/27 05:22:43;;;;;;;47.08;17.13;;;691.40;1766.40;;;;;;5093128;28;20046;-65
2021/07/27 05:25:11;;;;;;;35.00;18.02;;;691.50;1740.80;;;;;;5092863;28;20036;-65
2021/07/27 05:27:37;;;;;;;37.97;16.60;;;691.70;1740.80;;;;;;5092891;28;20016;-66
2021/07/27 05:30:04;;;;;;;32.53;15.70;;;691.70;1715.20;;;;;;5093284;28;20020;-67
2021/07/27 05:32:30;;;;;;;35.03;17.05;;;691.80;1715.20;;;;;;5092581;28;20515;-68
2021/07/27 05:34:56;;;;;;;33.00;15.90;;;691.80;1715.20;;;;;;5092107;28;20068;-63
2021/07/27 05:37:22;;;;;;;37.08;17.40;;;691.90;1715.20;;;;;;5093211;28;20032;-65
2021/07/27 05:39:48;;;;;;;34.92;18.23;;;691.90;1689.60;;;;;;5093625;28;20020;-67
2021/07/27 05:42:14;;;;;;;40.47;19.05;;;692.00;1689.60;;;;;;5093467;28;20035;-67
2021/07/27 05:44:40;;;;;;;48.17;17.75;;;692.00;1689.60;;;;;;5093843;28;20382;-70
2021/07/27 05:47:06;;;;;;;46.33;17.10;;;716.80;1715.20;;;;;;5093046;28;20023;-72
2021/07/27 05:49:34;;;;;;;35.28;14.07;;;716.80;1715.20;;;;;;5093053;28;20032;-77
2021/07/27 05:52:00;;;;;;;31.70;13.43;;;716.80;1689.60;;;;;;5093284;28;20107;-77
2021/07/27 05:54:26;;;;;;;46.42;13.82;;;716.90;1689.60;;;;;;5093470;28;20150;-71
2021/07/27 05:56:52;;;;;;;40.38;13.98;;;717.00;1664.00;;;;;;5093701;28;20024;-76
2021/07/27 05:59:19;;;;;;;28.50;12.45;;;717.00;1664.00;;;;;;5092739;28;20024;-69
2021/07/27 06:01:48;;;;;;;24.45;12.40;;;717.20;1638.40;;;;;;5092851;28;20035;-72
2021/07/27 06:04:15;;;;;;;25.15;11.25;;;717.20;1638.40;;;;;;5090059;28;20032;-62
2021/07/27 06:06:41;;;;;;;25.48;11.07;;;717.30;1638.40;;;;;;5093658;28;20024;-64
2021/07/27 06:09:10;;;;;;;31.90;11.25;;;717.40;1612.80;;;;;;5093491;28;20522;-61
2021/07/27 06:11:37;;;;;;;36.33;12.95;;;717.50;1638.40;;;;;;5093856;28;20024;-63
2021/07/27 06:14:06;;;;;;;37.72;12.00;;;717.60;1612.80;;;;;;5093675;28;20707;-64
2021/07/27 06:16:39;;;;;;;79.80;14.63;;;742.40;1638.40;;;;;;5093882;28;20492;-64
2021/07/27 06:19:06;;;;;;;47.28;13.35;;;742.50;1612.80;;;;;;5093886;28;20025;-63
2021/07/27 06:21:33;;;;;;;44.75;13.45;;;742.50;1612.80;;;;;;5093807;28;20024;-64
2021/07/27 06:23:59;;;;;;;27.38;10.88;;;742.50;1612.80;;;;;;5093706;28;20051;-67
2021/07/27 06:26:24;;;;;;;36.60;12.10;;;742.60;1612.80;;;;;;5093778;28;20070;-67
2021/07/27 06:28:50;;;;;;;30.73;12.40;;;742.70;1612.80;;;;;;5093517;28;20028;-67
2021/07/27 06:31:16;;;;;;;37.05;11.93;;;742.80;1612.80;;;;;;5093465;28;20051;-67
2021/07/27 06:33:43;;;;;;;54.63;13.70;;;743.00;1587.20;;;;;;5093717;28;20028;-68
2021/07/27 06:36:10;;;;;;;50.05;13.77;;;743.10;1561.60;;;;;;5093352;28;20032;-67
2021/07/27 06:38:36;;;;;;;42.00;11.73;;;743.30;1536.00;;;;;;5092178;28;20063;-67
2021/07/27 06:41:05;;;;;;;27.98;10.45;;;768.00;1510.40;;;;;;5091679;28;20476;-67
2021/07/27 06:43:32;;;;;;;23.77;10.10;;;768.30;1484.80;;;;;;5091724;28;20505;-67
2021/07/27 06:45:57;;;;;;;29.52;9.93;;;768.60;1459.20;;;;;;5091785;28;20043;-67
2021/07/27 06:48:24;;;;;;;26.52;10.52;;;768.80;1408.00;;;;;;5091965;28;20058;-67
2021/07/27 06:50:50;;;;;;;24.27;9.90;;;793.60;1408.00;;;;;;5092291;28;20024;-67
2021/07/27 06:53:16;;;;;;;21.08;9.45;;;793.90;1408.00;;;;;;5092155;28;20099;-67
2021/07/27 06:55:42;;;;;;;23.05;9.77;;;794.10;1356.80;;;;;;5092223;28;20115;-67
2021/07/27 06:58:08;;;;;;;22.65;9.50;;;794.30;1331.20;;;;;;5092284;28;20038;-67
2021/07/27 07:00:34;;;;;;;24.40;9.27;;;794.40;1305.60;;;;;;5091796;28;20032;-67
2021/07/27 07:03:00;;;;;;;19.02;8.93;;;819.40;1280.00;;;;;;5091871;28;20077;-67
2021/07/27 07:05:26;;;;;;;22.50;8.70;;;819.60;1254.40;;;;;;5091829;28;20110;-68
2021/07/27 07:07:52;;;;;;;22.73;8.45;;;819.90;1254.40;;;;;;5091667;28;20111;-67
2021/07/27 07:10:18;;;;;;;22.63;9.07;;;820.10;1228.80;;;;;;5092968;28;20060;-67
2021/07/27 07:12:43;;;;;;;27.38;9.30;;;844.90;1228.80;;;;;;5093257;28;20486;-67
2021/07/27 07:15:10;;;;;;;22.00;8.60;;;845.10;1228.80;;;;;;5093157;28;20020;-68
2021/07/27 07:17:35;;;;;;;29.13;9.48;;;845.30;1203.20;;;;;;5093164;28;20028;-67
2021/07/27 07:20:01;;;;;;;23.52;9.50;;;845.50;1177.60;;;;;;5094010;28;20114;-68
2021/07/27 07:22:29;;;;;;;40.78;9.80;;;870.40;1152.00;;;;;;5096735;28;20024;-67
2021/07/27 07:24:55;;;;;;;66.55;11.30;;;870.50;1152.00;;;;;;5096609;28;20123;-67
2021/07/27 07:27:21;;;;;;;52.97;10.45;;;870.60;1126.40;;;;;;5096628;28;20020;-67
2021/07/27 07:29:47;;;;;;;28.38;8.85;;;870.70;1100.80;;;;;;5096513;28;20024;-67
2021/07/27 07:32:13;;;;;;;27.30;8.75;;;870.60;1100.80;;;;;;5096496;28;20016;-67
2021/07/27 07:34:39;;;;;;;31.17;9.15;;;870.70;1100.80;;;;;;5096546;28;20035;-67
2021/07/27 07:37:06;;;;;;;30.20;9.75;;;870.80;1100.80;;;;;;5096249;28;20068;-68
2021/07/27 07:39:34;;;;;;;31.63;9.98;;;870.80;1100.80;;;;;;5096255;28;20051;-68
2021/07/27 07:41:59;;;;;;;31.52;10.77;;;870.80;1100.80;;;;;;5095826;28;20020;-69
2021/07/27 07:44:25;;;;;;;146.18;114.38;;;870.80;1100.80;;;;;;5094451;28;20050;-68
2021/07/27 07:46:51;;;;;;;74.65;51.30;;;870.80;1126.40;;;;;;5096203;28;20543;-68
2021/07/27 07:49:17;;;;;;;48.72;28.38;;;871.00;1100.80;;;;;;5096340;28;20028;-70
2021/07/27 07:51:47;;;;;;;72.95;19.40;;;871.00;1100.80;;;;;;5096210;28;20016;-67
2021/07/27 07:54:14;;;;;;;35.85;11.35;;;871.10;1100.80;;;;;;5096210;28;20028;-67
2021/07/27 07:56:43;;;;;;;40.85;11.32;;;871.20;1075.20;;;;;;5096168;28;20047;-67
2021/07/27 07:59:09;;;;;;;49.58;11.75;;;896.00;1075.20;;;;;;5095937;28;20028;-67
2021/07/27 08:01:35;;;;;;;31.42;9.43;;;896.20;1075.20;;;;;;5095973;28;20031;-67
2021/07/27 08:04:00;;;;;;;42.47;10.70;;;896.50;1049.60;;;;;;5096045;28;20028;-67
2021/07/27 08:06:26;;;;;;;30.20;10.85;;;896.70;1049.60;;;;;;5095879;28;20381;-67
2021/07/27 08:08:52;;;;;;;22.58;9.55;;;921.60;1049.60;;;;;;5096123;28;20020;-67
2021/07/27 08:11:18;;;;;;;29.23;9.18;;;922.00;1024.00;;;;;;5095844;28;20495;-67
2021/07/27 08:13:44;;;;;;;25.98;8.95;;;922.10;1024.00;;;;;;5095946;28;20034;-67
2021/07/27 08:16:10;;;;;;;50.33;10.88;;;922.30;998.40;;;;;;5095714;28;20365;-67
2021/07/27 08:18:37;;;;;;;41.72;10.45;;;922.50;998.40;;;;;;5095880;28;20030;-67
2021/07/27 08:21:03;;;;;;;43.80;10.55;;;947.20;972.80;;;;;;5095750;28;20120;-67
2021/07/27 08:23:28;;;;;;;55.88;9.90;;;947.40;972.80;;;;;;5095721;28;20466;-67
2021/07/27 08:25:54;;;;;;;31.67;8.55;;;947.80;947.20;;;;;;5095602;28;20036;-66
2021/07/27 08:28:20;;;;;;;33.45;8.35;;;948.00;921.60;;;;;;5095473;28;20024;-66
2021/07/27 08:30:46;;;;;;;35.53;9.38;;;948.10;921.60;;;;;;5094931;28;20028;-66
2021/07/27 08:33:11;;;;;;;21.80;8.55;;;948.10;921.60;;;;;;5095482;28;20073;-67
2021/07/27 08:35:37;;;;;;;26.02;8.10;;;948.10;896.00;;;;;;5094872;28;20432;-67
2021/07/27 08:38:03;;;;;;;18.30;7.90;;;972.80;921.60;;;;;;5095320;28;20346;-67
2021/07/27 08:40:34;;;;;;;20.00;8.38;;;972.80;921.60;;;;;;5095171;28;20027;-67
2021/07/27 08:43:01;;;;;;;15.35;6.57;;;972.80;921.60;;;;;;5094945;28;20097;-66
2021/07/27 08:45:27;;;;;;;17.60;6.55;;;972.80;870.40;;;;;;5095050;28;20035;-66
2021/07/27 08:47:53;;;;;;;15.35;6.45;;;972.80;844.80;;;;;;5095176;28;20024;-67
2021/07/27 08:50:19;;;;;;;12.85;6.07;;;972.80;819.20;;;;;;5094152;28;20696;-67
2021/07/27 08:52:44;;;;;;;16.13;6.78;;;972.80;819.20;;;;;;5092649;28;20158;-67
2021/07/27 08:55:11;;;;;;;19.83;6.65;;;972.80;819.20;;;;;;5093286;28;20028;-67
2021/07/27 08:57:59;;;;;;;17.60;6.88;;;972.80;844.80;;;;;;5094262;28;20099;-67
2021/07/27 09:00:26;;;;;;;14.15;5.40;;;972.90;844.80;;;;;;5093779;28;20123;-67
2021/07/27 09:02:52;;;;;;;18.33;6.82;;;973.00;844.80;;;;;;5094223;28;20020;-67
2021/07/27 09:05:19;;;;;;;20.92;6.40;;;973.00;844.80;;;;;;5094349;28;20387;-67
2021/07/27 09:07:45;;;;;;;43.47;7.72;;;973.30;844.80;;;;;;5094032;28;20020;-65
2021/07/27 09:10:22;;;;;;;38.72;7.65;;;973.30;819.20;;;;;;5093561;28;20069;-66
2021/07/27 09:13:12;;;;;;;25.02;7.00;;;973.50;819.20;;;;;;5093217;28;20039;-68
2021/07/27 09:15:43;;;;;;;26.40;7.22;;;973.60;844.80;;;;;;5090950;28;20020;-66
2021/07/27 09:18:21;;;;;;;23.65;6.95;;;998.50;844.80;;;;;;5092206;28;20035;-66
2021/07/27 09:20:47;;;;;;;32.97;7.53;;;998.60;844.80;;;;;;5090918;28;20027;-66
2021/07/27 09:23:15;;;;;;;21.55;6.70;;;998.70;819.20;;;;;;5092591;28;20354;-68
2021/07/27 09:25:49;;;;;;;24.88;8.57;;;998.80;819.20;;;;;;5093516;28;20394;-67
2021/07/27 09:28:15;;;;;;;54.55;17.23;;;998.80;819.20;;;;;;5093434;28;20024;-68
2021/07/27 09:30:42;;;;;;;38.05;12.18;;;998.90;819.20;;;;;;5093375;28;20020;-68
2021/07/27 09:33:10;;;;;;;23.73;8.10;;;998.90;819.20;;;;;;5093332;28;20057;-68
2021/07/27 09:35:38;;;;;;;21.42;6.90;;;999.00;819.20;;;;;;5093204;28;20028;-68
2021/07/27 09:38:08;;;;;;;20.15;6.25;;;999.10;793.60;;;;;;5093247;28;20073;-68
2021/07/27 09:40:36;;;;;;;14.60;6.13;;;999.20;793.60;;;;;;5093094;28;20500;-68
2021/07/27 09:43:02;;;;;;;15.15;6.15;;;1024.00;793.60;;;;;;5092138;28;20040;-68
2021/07/27 09:45:28;;;;;;;29.75;6.40;;;1024.00;768.00;;;;;;5092109;28;20036;-68
2021/07/27 09:47:55;;;;;;;27.48;6.47;;;1024.00;742.40;;;;;;5092293;28;20024;-68
2021/07/27 09:50:23;;;;;;;28.33;6.82;;;1024.10;742.40;;;;;;5092863;28;20099;-68
2021/07/27 09:52:50;;;;;;;23.33;5.95;;;1024.10;742.40;;;;;;5092544;28;20411;-67
2021/07/27 09:55:16;;;;;;;29.17;6.68;;;1024.20;716.80;;;;;;5092603;28;20556;-68
2021/07/27 09:57:42;;;;;;;17.25;6.35;;;1024.30;716.80;;;;;;5092409;28;20466;-69
2021/07/27 10:00:10;;;;;;;21.58;5.18;;;1024.20;716.80;;;;;;5093848;28;20408;-67
2021/07/27 10:02:41;;;;;;;16.02;5.97;;;1024.20;716.80;;;;;;5092602;28;20016;-68
2021/07/27 10:05:09;;;;;;;16.35;5.25;;;1024.20;691.20;;;;;;5092167;28;20423;-72
2021/07/27 10:07:35;;;;;;;14.68;5.53;;;1024.20;691.20;;;;;;5092407;28;20146;-72
2021/07/27 10:10:09;;;;;;;18.45;6.20;;;1024.30;691.20;;;;;;5091102;28;20123;-72
2021/07/27 10:12:36;;;;;;;15.45;4.82;;;1024.40;716.80;;;;;;5090379;28;20035;-71
2021/07/27 10:15:12;;;;;;;18.98;4.85;;;1024.30;716.80;;;;;;5092281;28;20377;-66
2021/07/27 10:17:51;;;;;;;15.55;5.70;;;1024.50;691.20;;;;;;5090611;28;20019;-70
2021/07/27 10:20:28;;;;;;;17.35;5.65;;;1024.30;691.20;;;;;;5089942;28;20024;-67
2021/07/27 10:22:54;;;;;;;21.40;5.47;;;1024.30;691.20;;;;;;5089779;28;20101;-69
2021/07/27 10:25:20;;;;;;;15.73;5.93;;;1024.50;691.20;;;;;;5092223;28;20430;-66
2021/07/27 10:27:54;;;;;;;16.40;4.45;;;1024.60;691.20;;;;;;5092234;28;20509;-71
2021/07/27 10:30:36;;;;;;;20.65;5.38;;;1024.70;640.00;;;;;;5092443;28;20039;-71
2021/07/27 10:33:02;;;;;;;20.50;4.80;;;1024.70;640.00;;;;;;5090989;28;20020;-70
2021/07/27 10:35:33;;;;;;;28.15;5.78;;;1049.60;665.60;;;;;;5092496;28;20077;-71
2021/07/27 10:38:12;;;;;;;22.27;5.10;;;1049.70;640.00;;;;;;5093635;28;20036;-71
2021/07/27 10:40:38;;;;;;;18.50;5.03;;;1049.80;614.40;;;;;;5093706;28;20039;-75
2021/07/27 10:43:07;;;;;;;18.30;5.07;;;1049.70;640.00;;;;;;5093706;28;20043;-74
2021/07/27 10:45:33;;;;;;;26.08;5.65;;;1049.70;614.40;;;;;;5093528;28;20035;-74
2021/07/27 10:47:59;;;;;;;22.27;4.90;;;1049.80;614.40;;;;;;5093259;28;20024;-74
2021/07/27 10:50:30;;;;;;;22.30;5.28;;;1049.70;614.40;;;;;;5093459;28;20043;-71
2021/07/27 10:53:12;;;;;;;30.38;6.57;;;1049.70;640.00;;;;;;5093486;28;20025;-74
2021/07/27 10:55:42;;;;;;;18.42;4.78;;;1049.80;640.00;;;;;;5097251;28;20024;-70
2021/07/27 10:58:18;;;;;;;20.17;4.38;;;1049.80;640.00;;;;;;5097395;28;20027;-73
2021/07/27 11:00:44;;;;;;;18.60;4.80;;;1049.90;614.40;;;;;;5097356;28;20062;-73
2021/07/27 11:03:10;;;;;;;15.07;4.95;;;1050.00;614.40;;;;;;5097068;28;20470;-70
2021/07/27 11:05:36;;;;;;;20.70;5.10;;;1050.00;614.40;;;;;;5097082;28;20040;-73
2021/07/27 11:08:02;;;;;;;23.83;5.30;;;1050.00;614.40;;;;;;5097287;28;20020;-71
2021/07/27 11:10:31;;;;;;;15.70;4.57;;;1050.00;614.40;;;;;;5096913;28;20462;-68
2021/07/27 11:12:58;;;;;;;13.73;5.00;;;1050.10;588.80;;;;;;5097044;28;20146;-67
2021/07/27 11:15:28;;;;;;;15.30;4.63;;;1050.20;588.80;;;;;;5096775;28;20047;-65
2021/07/27 11:17:59;;;;;;;22.15;5.43;;;1050.20;614.40;;;;;;5096624;28;20386;-68
2021/07/27 11:20:37;;;;;;;26.05;5.93;;;1050.30;614.40;;;;;;5096491;28;20028;-69
2021/07/27 11:23:19;;;;;;;17.55;4.90;;;1050.30;614.40;;;;;;5096241;28;20029;-71
2021/07/27 11:25:59;;;;;;;15.45;4.82;;;1050.40;614.40;;;;;;5073333;28;20397;-66
2021/07/27 11:28:39;;;;;;;17.42;4.53;;;1050.40;614.40;;;;;;5092997;28;20700;-64
2021/07/27 11:31:20;;;;;;;21.42;4.85;;;1050.40;614.40;;;;;;5094551;28;20485;-69
2021/07/27 11:33:51;;;;;;;19.15;5.10;;;1050.40;614.40;;;;;;5092854;28;20054;-65
2021/07/27 11:36:24;;;;;;;23.00;5.47;;;1075.20;614.40;;;;;;5094645;28;20047;-67
2021/07/27 11:38:50;;;;;;;18.17;5.18;;;1050.40;614.40;;;;;;5093039;28;20039;-66
2021/07/27 11:41:19;;;;;;;21.48;6.03;;;1075.20;614.40;;;;;;5094754;28;20024;-66
2021/07/27 11:43:47;;;;;;;20.77;6.60;;;1075.20;614.40;;;;;;5093732;28;20040;-72
2021/07/27 11:46:19;;;;;;;16.05;5.68;;;1075.30;614.40;;;;;;5094153;28;20412;-69
2021/07/27 11:48:54;;;;;;;20.33;5.13;;;1075.20;614.40;;;;;;5093810;28;20024;-66
2021/07/27 11:51:58;;;;;;;21.42;5.00;;;1075.20;614.40;;;;;;5090699;28;20540;-69
2021/07/27 11:54:27;;;;;;;24.42;5.68;;;1075.20;614.40;;;;;;5011464;28;20113;-66
2021/07/27 11:56:53;;;;;;;18.52;4.68;;;1050.40;640.00;;;;;;5011108;28;20025;-65
2021/07/27 11:59:28;;;;;;;17.02;5.65;;;1050.40;614.40;;;;;;5011781;28;20038;-66
2021/07/27 12:01:55;;;;;;;21.52;5.55;;;1075.20;614.40;;;;;;5010321;28;20033;-70
2021/07/27 12:04:21;;;;;;;16.80;4.88;;;1075.20;614.40;;;;;;5007191;28;20510;-70
2021/07/27 12:06:52;;;;;;;15.70;5.20;;;1075.20;640.00;;;;;;5007026;28;20113;-70
2021/07/27 12:09:22;;;;;;;21.85;6.57;;;1075.20;614.40;;;;;;5011186;28;20030;-67
2021/07/27 12:11:49;;;;;;;18.67;6.72;;;1075.20;614.40;;;;;;5010960;28;20061;-65
2021/07/27 12:14:15;;;;;;;20.55;6.05;;;1075.20;614.40;;;;;;5011386;28;20052;-72
2021/07/27 12:16:48;;;;;;;20.98;6.25;;;1075.20;614.40;;;;;;5010650;28;20033;-70
2021/07/27 12:19:14;;;;;;;18.13;5.25;;;1050.40;614.40;;;;;;5011862;28;20109;-66
2021/07/27 12:21:40;;;;;;;24.50;5.35;;;1050.40;614.40;;;;;;5012717;28;20120;-69
2021/07/27 12:24:06;;;;;;;19.52;4.97;;;1075.20;614.40;;;;;;5011857;28;20109;-68
2021/07/27 12:26:36;;;;;;;18.50;4.97;;;1050.40;614.40;;;;;;4996009;28;20062;-67
2021/07/27 12:29:03;;;;;;;17.10;4.15;;;1050.40;614.40;;;;;;5012265;28;20034;-68
2021/07/27 12:31:30;;;;;;;15.60;5.18;;;1050.40;588.80;;;;;;5066183;28;20428;-72
2021/07/27 12:33:55;;;;;;;24.25;5.40;;;1050.40;614.40;;;;;;5074931;28;20413;-70